sensor_id;sensor_type;location;lat;lon;timestamp;temperature;humidity
46336;DHT22;31365;48.858;8.530;2022-09-09T00:00:49;19.30;99.90
46336;DHT22;31365;48.858;8.530;2022-09-09T00:03:26;19.40;99.90
46336;DHT22;31365;48.858;8.530;2022-09-09T00:06:07;19.40;99.90
46336;DHT22;31365;48.858;8.530;2022-09-09T00:08:53;19.40;99.90
46336;DHT22;31365;48.858;8.530;2022-09-09T00:11:34;19.40;99.90
46336;DHT22;31365;48.858;8.530;2022-09-09T00:14:13;19.30;99.90
46336;DHT22;31365;48.858;8.530;2022-09-09T00:16:54;19.30;99.90
46336;DHT22;31365;48.858;8.530;2022-09-09T00:19:28;19.40;99.90
46336;DHT22;31365;48.858;8.530;2022-09-09T00:26:13;19.30;99.90
46336;DHT22;31365;48.858;8.530;2022-09-09T00:28:55;19.20;99.90
46336;DHT22;31365;48.858;8.530;2022-09-09T00:31:31;19.20;99.90
46336;DHT22;31365;48.858;8.530;2022-09-09T00:34:05;19.10;99.90
46336;DHT22;31365;48.858;8.530;2022-09-09T00:36:40;19.20;99.90
46336;DHT22;31365;48.858;8.530;2022-09-09T00:39:19;19.00;99.90
46336;DHT22;31365;48.858;8.530;2022-09-09T00:42:03;19.00;99.90
46336;DHT22;31365;48.858;8.530;2022-09-09T00:44:52;18.90;99.90
46336;DHT22;31365;48.858;8.530;2022-09-09T00:47:42;18.90;99.90
46336;DHT22;31365;48.858;8.530;2022-09-09T00:50:32;18.90;99.90
46336;DHT22;31365;48.858;8.530;2022-09-09T00:53:19;18.80;99.90
46336;DHT22;31365;48.858;8.530;2022-09-09T00:56:09;18.70;99.90
46336;DHT22;31365;48.858;8.530;2022-09-09T00:58:51;18.70;99.90
46336;DHT22;31365;48.858;8.530;2022-09-09T01:01:27;18.60;99.90
46336;DHT22;31365;48.858;8.530;2022-09-09T01:03:56;18.60;99.90
46336;DHT22;31365;48.858;8.530;2022-09-09T01:06:30;18.70;99.90
46336;DHT22;31365;48.858;8.530;2022-09-09T01:09:17;18.70;99.90
46336;DHT22;31365;48.858;8.530;2022-09-09T01:11:57;18.70;99.90
46336;DHT22;31365;48.858;8.530;2022-09-09T01:14:40;18.70;99.90
46336;DHT22;31365;48.858;8.530;2022-09-09T01:17:17;18.70;99.90
46336;DHT22;31365;48.858;8.530;2022-09-09T01:20:03;18.70;99.90
46336;DHT22;31365;48.858;8.530;2022-09-09T01:22:52;18.60;99.90
46336;DHT22;31365;48.858;8.530;2022-09-09T01:26:21;18.60;99.90
46336;DHT22;31365;48.858;8.530;2022-09-09T01:28:56;18.50;99.90
46336;DHT22;31365;48.858;8.530;2022-09-09T01:31:37;18.10;99.90
46336;DHT22;31365;48.858;8.530;2022-09-09T01:34:10;17.90;99.90
46336;DHT22;31365;48.858;8.530;2022-09-09T01:36:44;17.70;99.90
46336;DHT22;31365;48.858;8.530;2022-09-09T01:39:18;17.60;99.90
46336;DHT22;31365;48.858;8.530;2022-09-09T01:41:57;17.50;99.90
46336;DHT22;31365;48.858;8.530;2022-09-09T01:44:27;17.30;99.90
46336;DHT22;31365;48.858;8.530;2022-09-09T01:46:57;17.30;99.90
46336;DHT22;31365;48.858;8.530;2022-09-09T01:49:26;17.20;99.90
46336;DHT22;31365;48.858;8.530;2022-09-09T01:51:56;17.10;99.90
46336;DHT22;31365;48.858;8.530;2022-09-09T01:54:33;17.00;99.90
46336;DHT22;31365;48.858;8.530;2022-09-09T01:57:17;16.90;99.90
46336;DHT22;31365;48.858;8.530;2022-09-09T02:00:00;16.80;99.90
46336;DHT22;31365;48.858;8.530;2022-09-09T02:02:46;16.80;99.90
46336;DHT22;31365;48.858;8.530;2022-09-09T02:05:36;16.80;99.90
46336;DHT22;31365;48.858;8.530;2022-09-09T02:08:20;16.80;99.90
46336;DHT22;31365;48.858;8.530;2022-09-09T02:11:03;16.70;99.90
46336;DHT22;31365;48.858;8.530;2022-09-09T02:13:43;16.80;99.90
46336;DHT22;31365;48.858;8.530;2022-09-09T02:16:18;16.70;99.90
46336;DHT22;31365;48.858;8.530;2022-09-09T02:19:00;16.70;99.90
46336;DHT22;31365;48.858;8.530;2022-09-09T02:21:48;16.70;99.90
46336;DHT22;31365;48.858;8.530;2022-09-09T02:24:18;16.60;99.90
46336;DHT22;31365;48.858;8.530;2022-09-09T02:26:56;16.50;99.90
46336;DHT22;31365;48.858;8.530;2022-09-09T02:29:34;16.50;99.90
46336;DHT22;31365;48.858;8.530;2022-09-09T02:32:07;16.50;99.90
46336;DHT22;31365;48.858;8.530;2022-09-09T02:34:43;16.50;99.90
46336;DHT22;31365;48.858;8.530;2022-09-09T02:37:17;16.40;99.90
46336;DHT22;31365;48.858;8.530;2022-09-09T02:39:51;16.40;99.90
46336;DHT22;31365;48.858;8.530;2022-09-09T02:42:21;16.40;99.90
46336;DHT22;31365;48.858;8.530;2022-09-09T02:44:54;16.30;99.90
46336;DHT22;31365;48.858;8.530;2022-09-09T02:47:28;16.30;99.90
46336;DHT22;31365;48.858;8.530;2022-09-09T02:50:12;16.20;99.90
46336;DHT22;31365;48.858;8.530;2022-09-09T02:52:50;16.20;99.90
46336;DHT22;31365;48.858;8.530;2022-09-09T02:55:37;16.30;99.90
46336;DHT22;31365;48.858;8.530;2022-09-09T02:58:10;16.30;99.90
46336;DHT22;31365;48.858;8.530;2022-09-09T03:00:53;16.30;99.90
46336;DHT22;31365;48.858;8.530;2022-09-09T03:03:22;16.30;99.90
46336;DHT22;31365;48.858;8.530;2022-09-09T03:05:52;16.30;99.90
46336;DHT22;31365;48.858;8.530;2022-09-09T03:08:20;16.30;99.90
46336;DHT22;31365;48.858;8.530;2022-09-09T03:10:49;16.30;99.90
46336;DHT22;31365;48.858;8.530;2022-09-09T03:13:17;16.30;99.90
46336;DHT22;31365;48.858;8.530;2022-09-09T03:15:47;16.30;99.90
46336;DHT22;31365;48.858;8.530;2022-09-09T03:18:20;16.30;99.90
46336;DHT22;31365;48.858;8.530;2022-09-09T03:20:52;16.20;99.90
46336;DHT22;31365;48.858;8.530;2022-09-09T03:23:21;16.20;99.90
46336;DHT22;31365;48.858;8.530;2022-09-09T03:25:50;16.20;99.90
46336;DHT22;31365;48.858;8.530;2022-09-09T03:28:28;16.10;99.90
46336;DHT22;31365;48.858;8.530;2022-09-09T03:31:00;16.10;99.90
46336;DHT22;31365;48.858;8.530;2022-09-09T03:33:36;16.20;99.90
46336;DHT22;31365;48.858;8.530;2022-09-09T03:36:06;16.20;99.90
46336;DHT22;31365;48.858;8.530;2022-09-09T03:38:37;16.20;99.90
46336;DHT22;31365;48.858;8.530;2022-09-09T03:41:06;16.30;99.90
46336;DHT22;31365;48.858;8.530;2022-09-09T03:43:34;16.30;99.90
46336;DHT22;31365;48.858;8.530;2022-09-09T03:46:04;16.50;99.90
46336;DHT22;31365;48.858;8.530;2022-09-09T03:48:32;16.40;99.90
46336;DHT22;31365;48.858;8.530;2022-09-09T03:51:04;16.50;99.90
46336;DHT22;31365;48.858;8.530;2022-09-09T03:53:34;16.50;99.90
46336;DHT22;31365;48.858;8.530;2022-09-09T03:56:04;16.60;99.90
46336;DHT22;31365;48.858;8.530;2022-09-09T03:58:35;16.60;99.90
46336;DHT22;31365;48.858;8.530;2022-09-09T04:01:08;16.70;99.90
46336;DHT22;31365;48.858;8.530;2022-09-09T04:03:41;16.70;99.90
46336;DHT22;31365;48.858;8.530;2022-09-09T04:06:12;16.70;99.90
46336;DHT22;31365;48.858;8.530;2022-09-09T04:08:45;16.70;99.90
46336;DHT22;31365;48.858;8.530;2022-09-09T04:11:16;16.80;99.90
46336;DHT22;31365;48.858;8.530;2022-09-09T04:13:46;16.80;99.90
46336;DHT22;31365;48.858;8.530;2022-09-09T04:16:16;16.80;99.90
46336;DHT22;31365;48.858;8.530;2022-09-09T04:18:46;16.90;99.90
46336;DHT22;31365;48.858;8.530;2022-09-09T04:21:17;16.90;99.90
46336;DHT22;31365;48.858;8.530;2022-09-09T04:23:46;17.00;99.90
46336;DHT22;31365;48.858;8.530;2022-09-09T04:26:14;16.90;99.90
46336;DHT22;31365;48.858;8.530;2022-09-09T04:28:44;16.90;99.90
46336;DHT22;31365;48.858;8.530;2022-09-09T04:31:18;16.90;99.90
46336;DHT22;31365;48.858;8.530;2022-09-09T04:33:52;16.90;99.90
46336;DHT22;31365;48.858;8.530;2022-09-09T04:36:23;17.00;99.90
46336;DHT22;31365;48.858;8.530;2022-09-09T04:38:56;17.00;99.90
46336;DHT22;31365;48.858;8.530;2022-09-09T04:41:25;17.00;99.90
46336;DHT22;31365;48.858;8.530;2022-09-09T04:43:54;17.00;99.90
46336;DHT22;31365;48.858;8.530;2022-09-09T04:46:23;17.00;99.90
46336;DHT22;31365;48.858;8.530;2022-09-09T04:48:52;17.00;99.90
46336;DHT22;31365;48.858;8.530;2022-09-09T04:51:26;17.10;99.90
46336;DHT22;31365;48.858;8.530;2022-09-09T04:53:55;17.00;99.90
46336;DHT22;31365;48.858;8.530;2022-09-09T04:56:24;16.90;99.90
46336;DHT22;31365;48.858;8.530;2022-09-09T04:58:57;17.00;99.90
46336;DHT22;31365;48.858;8.530;2022-09-09T05:01:36;17.00;99.90
46336;DHT22;31365;48.858;8.530;2022-09-09T05:04:05;17.00;99.90
46336;DHT22;31365;48.858;8.530;2022-09-09T05:06:35;17.00;99.90
46336;DHT22;31365;48.858;8.530;2022-09-09T05:09:04;17.00;99.90
46336;DHT22;31365;48.858;8.530;2022-09-09T05:11:33;17.00;99.90
46336;DHT22;31365;48.858;8.530;2022-09-09T05:14:13;17.10;99.90
46336;DHT22;31365;48.858;8.530;2022-09-09T05:16:41;17.10;99.90
46336;DHT22;31365;48.858;8.530;2022-09-09T05:19:11;17.20;99.90
46336;DHT22;31365;48.858;8.530;2022-09-09T05:21:47;17.20;99.90
46336;DHT22;31365;48.858;8.530;2022-09-09T05:24:21;17.20;99.90
46336;DHT22;31365;48.858;8.530;2022-09-09T05:26:53;17.40;99.90
46336;DHT22;31365;48.858;8.530;2022-09-09T05:29:25;17.40;99.90
46336;DHT22;31365;48.858;8.530;2022-09-09T05:31:55;17.30;99.90
46336;DHT22;31365;48.858;8.530;2022-09-09T05:34:24;17.30;99.90
46336;DHT22;31365;48.858;8.530;2022-09-09T05:36:53;17.50;99.90
46336;DHT22;31365;48.858;8.530;2022-09-09T05:39:23;17.40;99.90
46336;DHT22;31365;48.858;8.530;2022-09-09T05:41:51;17.40;99.90
46336;DHT22;31365;48.858;8.530;2022-09-09T05:44:21;17.40;99.90
46336;DHT22;31365;48.858;8.530;2022-09-09T05:46:50;17.40;99.90
46336;DHT22;31365;48.858;8.530;2022-09-09T05:49:18;17.50;99.90
46336;DHT22;31365;48.858;8.530;2022-09-09T05:51:47;17.40;99.90
46336;DHT22;31365;48.858;8.530;2022-09-09T05:54:20;17.40;99.90
46336;DHT22;31365;48.858;8.530;2022-09-09T05:56:50;17.40;99.90
46336;DHT22;31365;48.858;8.530;2022-09-09T05:59:20;17.30;99.90
46336;DHT22;31365;48.858;8.530;2022-09-09T06:01:53;17.40;99.90
46336;DHT22;31365;48.858;8.530;2022-09-09T06:04:27;17.60;99.90
46336;DHT22;31365;48.858;8.530;2022-09-09T06:06:58;17.70;99.90
46336;DHT22;31365;48.858;8.530;2022-09-09T06:09:30;17.80;99.90
46336;DHT22;31365;48.858;8.530;2022-09-09T06:11:58;18.00;99.90
46336;DHT22;31365;48.858;8.530;2022-09-09T06:14:26;18.20;99.90
46336;DHT22;31365;48.858;8.530;2022-09-09T06:16:57;18.30;99.90
46336;DHT22;31365;48.858;8.530;2022-09-09T06:19:29;18.60;99.90
46336;DHT22;31365;48.858;8.530;2022-09-09T06:21:58;18.70;99.90
46336;DHT22;31365;48.858;8.530;2022-09-09T06:24:31;18.80;99.90
46336;DHT22;31365;48.858;8.530;2022-09-09T06:27:00;18.90;99.90
46336;DHT22;31365;48.858;8.530;2022-09-09T06:39:16;18.80;99.90
46336;DHT22;31365;48.858;8.530;2022-09-09T06:41:46;18.80;99.90
46336;DHT22;31365;48.858;8.530;2022-09-09T06:44:49;18.90;99.90
46336;DHT22;31365;48.858;8.530;2022-09-09T06:47:25;19.00;99.90
46336;DHT22;31365;48.858;8.530;2022-09-09T06:49:55;19.20;99.90
46336;DHT22;31365;48.858;8.530;2022-09-09T06:52:24;19.30;99.90
46336;DHT22;31365;48.858;8.530;2022-09-09T06:54:54;19.50;99.90
46336;DHT22;31365;48.858;8.530;2022-09-09T06:57:26;19.60;99.90
46336;DHT22;31365;48.858;8.530;2022-09-09T07:00:08;19.70;99.90
46336;DHT22;31365;48.858;8.530;2022-09-09T07:02:39;19.80;99.90
46336;DHT22;31365;48.858;8.530;2022-09-09T07:05:09;19.70;99.90
46336;DHT22;31365;48.858;8.530;2022-09-09T07:07:40;19.70;99.90
46336;DHT22;31365;48.858;8.530;2022-09-09T07:10:10;19.70;99.90
46336;DHT22;31365;48.858;8.530;2022-09-09T07:12:40;19.80;99.90
46336;DHT22;31365;48.858;8.530;2022-09-09T07:15:11;19.80;99.90
46336;DHT22;31365;48.858;8.530;2022-09-09T07:17:43;19.90;99.90
46336;DHT22;31365;48.858;8.530;2022-09-09T07:20:12;20.00;99.90
46336;DHT22;31365;48.858;8.530;2022-09-09T07:22:42;20.00;99.90
46336;DHT22;31365;48.858;8.530;2022-09-09T07:25:10;20.00;99.90
46336;DHT22;31365;48.858;8.530;2022-09-09T07:27:40;20.00;99.90
46336;DHT22;31365;48.858;8.530;2022-09-09T07:30:10;20.10;99.90
46336;DHT22;31365;48.858;8.530;2022-09-09T07:32:51;20.10;99.90
46336;DHT22;31365;48.858;8.530;2022-09-09T07:35:19;20.20;99.90
46336;DHT22;31365;48.858;8.530;2022-09-09T07:37:48;20.20;99.90
46336;DHT22;31365;48.858;8.530;2022-09-09T07:40:18;20.20;99.90
46336;DHT22;31365;48.858;8.530;2022-09-09T07:42:50;20.30;99.90
46336;DHT22;31365;48.858;8.530;2022-09-09T07:45:18;20.50;99.90
46336;DHT22;31365;48.858;8.530;2022-09-09T07:47:47;20.60;99.90
46336;DHT22;31365;48.858;8.530;2022-09-09T07:50:17;20.50;99.90
46336;DHT22;31365;48.858;8.530;2022-09-09T07:52:46;20.30;99.90
46336;DHT22;31365;48.858;8.530;2022-09-09T07:55:14;20.30;99.90
46336;DHT22;31365;48.858;8.530;2022-09-09T07:57:43;20.20;99.90
46336;DHT22;31365;48.858;8.530;2022-09-09T08:00:14;20.00;99.90
46336;DHT22;31365;48.858;8.530;2022-09-09T08:02:48;19.90;99.90
46336;DHT22;31365;48.858;8.530;2022-09-09T08:05:17;19.60;99.90
46336;DHT22;31365;48.858;8.530;2022-09-09T08:07:47;19.60;99.90
46336;DHT22;31365;48.858;8.530;2022-09-09T08:10:15;19.40;99.90
46336;DHT22;31365;48.858;8.530;2022-09-09T08:12:47;19.40;99.90
46336;DHT22;31365;48.858;8.530;2022-09-09T08:15:37;19.40;99.90
46336;DHT22;31365;48.858;8.530;2022-09-09T08:18:06;19.50;99.90
46336;DHT22;31365;48.858;8.530;2022-09-09T08:20:37;19.50;99.90
46336;DHT22;31365;48.858;8.530;2022-09-09T08:23:06;19.60;99.90
46336;DHT22;31365;48.858;8.530;2022-09-09T08:25:34;19.80;99.90
46336;DHT22;31365;48.858;8.530;2022-09-09T08:28:03;20.00;99.90
46336;DHT22;31365;48.858;8.530;2022-09-09T08:30:31;20.30;99.90
46336;DHT22;31365;48.858;8.530;2022-09-09T08:33:01;20.40;99.90
46336;DHT22;31365;48.858;8.530;2022-09-09T08:35:30;20.50;99.90
46336;DHT22;31365;48.858;8.530;2022-09-09T08:38:00;20.60;99.90
46336;DHT22;31365;48.858;8.530;2022-09-09T08:40:38;20.70;99.90
46336;DHT22;31365;48.858;8.530;2022-09-09T08:43:19;20.70;99.90
46336;DHT22;31365;48.858;8.530;2022-09-09T08:45:57;20.90;99.90
46336;DHT22;31365;48.858;8.530;2022-09-09T08:48:51;21.00;99.90
46336;DHT22;31365;48.858;8.530;2022-09-09T08:51:27;20.80;99.90
46336;DHT22;31365;48.858;8.530;2022-09-09T08:54:02;20.70;99.90
46336;DHT22;31365;48.858;8.530;2022-09-09T08:56:32;20.70;99.90
46336;DHT22;31365;48.858;8.530;2022-09-09T08:59:03;20.80;99.90
46336;DHT22;31365;48.858;8.530;2022-09-09T09:01:44;20.70;99.90
46336;DHT22;31365;48.858;8.530;2022-09-09T09:04:56;20.70;99.90
46336;DHT22;31365;48.858;8.530;2022-09-09T09:07:42;20.60;99.90
46336;DHT22;31365;48.858;8.530;2022-09-09T09:10:33;20.80;99.90
46336;DHT22;31365;48.858;8.530;2022-09-09T09:13:19;21.00;99.90
46336;DHT22;31365;48.858;8.530;2022-09-09T09:15:58;20.90;99.90
46336;DHT22;31365;48.858;8.530;2022-09-09T09:18:31;20.60;99.90
46336;DHT22;31365;48.858;8.530;2022-09-09T09:21:06;20.40;99.90
46336;DHT22;31365;48.858;8.530;2022-09-09T09:23:47;20.60;99.90
46336;DHT22;31365;48.858;8.530;2022-09-09T09:26:21;20.70;99.90
46336;DHT22;31365;48.858;8.530;2022-09-09T09:28:55;20.80;99.90
46336;DHT22;31365;48.858;8.530;2022-09-09T09:31:25;20.90;99.90
46336;DHT22;31365;48.858;8.530;2022-09-09T09:33:55;21.00;99.90
46336;DHT22;31365;48.858;8.530;2022-09-09T09:36:39;21.00;99.90
46336;DHT22;31365;48.858;8.530;2022-09-09T09:39:23;21.00;99.90
46336;DHT22;31365;48.858;8.530;2022-09-09T09:42:16;20.90;99.90
46336;DHT22;31365;48.858;8.530;2022-09-09T09:44:51;20.60;99.90
46336;DHT22;31365;48.858;8.530;2022-09-09T09:47:22;20.30;99.90
46336;DHT22;31365;48.858;8.530;2022-09-09T09:49:59;20.00;99.90
46336;DHT22;31365;48.858;8.530;2022-09-09T09:52:36;19.80;99.90
46336;DHT22;31365;48.858;8.530;2022-09-09T09:55:12;19.80;99.90
46336;DHT22;31365;48.858;8.530;2022-09-09T09:57:45;19.70;99.90
46336;DHT22;31365;48.858;8.530;2022-09-09T10:00:16;19.90;99.90
46336;DHT22;31365;48.858;8.530;2022-09-09T10:02:55;20.00;99.90
46336;DHT22;31365;48.858;8.530;2022-09-09T10:05:29;20.10;99.90
46336;DHT22;31365;48.858;8.530;2022-09-09T10:08:12;20.20;99.90
46336;DHT22;31365;48.858;8.530;2022-09-09T10:11:02;20.10;99.90
46336;DHT22;31365;48.858;8.530;2022-09-09T10:13:51;20.10;99.90
46336;DHT22;31365;48.858;8.530;2022-09-09T10:16:40;20.10;99.90
46336;DHT22;31365;48.858;8.530;2022-09-09T10:19:29;20.10;99.90
46336;DHT22;31365;48.858;8.530;2022-09-09T10:22:11;20.20;99.90
46336;DHT22;31365;48.858;8.530;2022-09-09T10:25:21;20.30;99.90
46336;DHT22;31365;48.858;8.530;2022-09-09T10:28:24;20.20;99.90
46336;DHT22;31365;48.858;8.530;2022-09-09T10:31:15;20.30;99.90
46336;DHT22;31365;48.858;8.530;2022-09-09T10:33:59;20.30;99.90
46336;DHT22;31365;48.858;8.530;2022-09-09T10:36:42;20.10;99.90
46336;DHT22;31365;48.858;8.530;2022-09-09T10:39:28;20.20;99.90
46336;DHT22;31365;48.858;8.530;2022-09-09T10:42:12;20.20;99.90
46336;DHT22;31365;48.858;8.530;2022-09-09T10:44:54;20.20;99.90
46336;DHT22;31365;48.858;8.530;2022-09-09T10:47:43;20.30;99.90
46336;DHT22;31365;48.858;8.530;2022-09-09T10:50:45;20.50;99.90
46336;DHT22;31365;48.858;8.530;2022-09-09T10:53:36;20.30;99.90
46336;DHT22;31365;48.858;8.530;2022-09-09T10:56:12;20.20;99.90
46336;DHT22;31365;48.858;8.530;2022-09-09T10:58:48;20.10;99.90
46336;DHT22;31365;48.858;8.530;2022-09-09T11:01:24;20.20;99.90
46336;DHT22;31365;48.858;8.530;2022-09-09T11:03:58;20.20;99.90
46336;DHT22;31365;48.858;8.530;2022-09-09T11:06:37;20.30;99.90
46336;DHT22;31365;48.858;8.530;2022-09-09T11:09:15;20.10;99.90
46336;DHT22;31365;48.858;8.530;2022-09-09T11:11:52;20.10;99.90
46336;DHT22;31365;48.858;8.530;2022-09-09T11:14:27;20.00;99.90
46336;DHT22;31365;48.858;8.530;2022-09-09T11:17:08;20.00;99.90
46336;DHT22;31365;48.858;8.530;2022-09-09T11:19:41;20.00;99.90
46336;DHT22;31365;48.858;8.530;2022-09-09T11:22:20;20.00;99.90
46336;DHT22;31365;48.858;8.530;2022-09-09T11:24:56;20.10;99.90
46336;DHT22;31365;48.858;8.530;2022-09-09T11:27:31;20.30;99.90
46336;DHT22;31365;48.858;8.530;2022-09-09T11:30:19;20.70;99.90
46336;DHT22;31365;48.858;8.530;2022-09-09T11:33:37;21.60;99.90
46336;DHT22;31365;48.858;8.530;2022-09-09T11:36:40;23.10;99.90
46336;DHT22;31365;48.858;8.530;2022-09-09T11:39:47;24.40;99.90
46336;DHT22;31365;48.858;8.530;2022-09-09T11:42:25;25.30;99.90
46336;DHT22;31365;48.858;8.530;2022-09-09T11:44:54;25.70;99.90
46336;DHT22;31365;48.858;8.530;2022-09-09T11:47:26;26.50;99.90
46336;DHT22;31365;48.858;8.530;2022-09-09T12:06:44;27.90;99.90
46336;DHT22;31365;48.858;8.530;2022-09-09T12:09:20;29.00;96.70
46336;DHT22;31365;48.858;8.530;2022-09-09T12:12:23;29.20;96.00
46336;DHT22;31365;48.858;8.530;2022-09-09T12:15:27;29.90;94.90
46336;DHT22;31365;48.858;8.530;2022-09-09T12:17:57;30.40;94.20
46336;DHT22;31365;48.858;8.530;2022-09-09T12:20:34;30.60;92.90
46336;DHT22;31365;48.858;8.530;2022-09-09T12:23:32;30.60;91.90
46336;DHT22;31365;48.858;8.530;2022-09-09T12:26:22;30.80;91.10
46336;DHT22;31365;48.858;8.530;2022-09-09T12:29:13;31.30;90.30
46336;DHT22;31365;48.858;8.530;2022-09-09T12:31:56;31.20;88.90
46336;DHT22;31365;48.858;8.530;2022-09-09T12:34:39;31.60;87.10
46336;DHT22;31365;48.858;8.530;2022-09-09T12:37:16;32.00;85.30
46336;DHT22;31365;48.858;8.530;2022-09-09T12:39:55;31.60;83.50
46336;DHT22;31365;48.858;8.530;2022-09-09T12:42:26;31.60;83.90
46336;DHT22;31365;48.858;8.530;2022-09-09T12:44:56;31.90;80.30
46336;DHT22;31365;48.858;8.530;2022-09-09T12:47:32;31.80;81.30
46336;DHT22;31365;48.858;8.530;2022-09-09T12:50:16;32.00;79.30
46336;DHT22;31365;48.858;8.530;2022-09-09T12:52:48;31.20;79.80
46336;DHT22;31365;48.858;8.530;2022-09-09T12:55:25;29.50;82.40
46336;DHT22;31365;48.858;8.530;2022-09-09T12:57:58;28.00;85.10
46336;DHT22;31365;48.858;8.530;2022-09-09T13:00:27;27.20;90.40
46336;DHT22;31365;48.858;8.530;2022-09-09T13:02:58;28.00;90.10
46336;DHT22;31365;48.858;8.530;2022-09-09T13:05:35;28.60;89.30
46336;DHT22;31365;48.858;8.530;2022-09-09T13:08:06;29.70;87.50
46336;DHT22;31365;48.858;8.530;2022-09-09T13:10:40;30.20;86.10
46336;DHT22;31365;48.858;8.530;2022-09-09T13:13:30;30.50;84.00
46336;DHT22;31365;48.858;8.530;2022-09-09T13:16:04;30.80;83.80
46336;DHT22;31365;48.858;8.530;2022-09-09T13:18:36;31.10;84.10
46336;DHT22;31365;48.858;8.530;2022-09-09T13:21:09;31.50;82.20
46336;DHT22;31365;48.858;8.530;2022-09-09T13:23:37;31.80;80.70
46336;DHT22;31365;48.858;8.530;2022-09-09T13:26:21;32.30;80.20
46336;DHT22;31365;48.858;8.530;2022-09-09T13:28:52;32.80;78.60
46336;DHT22;31365;48.858;8.530;2022-09-09T13:31:23;32.20;79.10
46336;DHT22;31365;48.858;8.530;2022-09-09T13:33:55;31.30;78.90
46336;DHT22;31365;48.858;8.530;2022-09-09T13:36:29;30.30;81.20
46336;DHT22;31365;48.858;8.530;2022-09-09T13:39:00;29.80;82.80
46336;DHT22;31365;48.858;8.530;2022-09-09T13:41:34;29.30;84.30
46336;DHT22;31365;48.858;8.530;2022-09-09T13:44:04;28.00;86.30
46336;DHT22;31365;48.858;8.530;2022-09-09T13:46:35;26.90;88.80
46336;DHT22;31365;48.858;8.530;2022-09-09T13:49:20;26.20;90.20
46336;DHT22;31365;48.858;8.530;2022-09-09T13:51:50;25.30;91.00
46336;DHT22;31365;48.858;8.530;2022-09-09T13:54:20;24.80;91.70
46336;DHT22;31365;48.858;8.530;2022-09-09T13:56:50;24.50;93.10
46336;DHT22;31365;48.858;8.530;2022-09-09T13:59:19;24.20;94.90
46336;DHT22;31365;48.858;8.530;2022-09-09T14:01:48;24.20;95.40
46336;DHT22;31365;48.858;8.530;2022-09-09T14:04:19;24.80;95.10
46336;DHT22;31365;48.858;8.530;2022-09-09T14:06:49;24.70;94.90
46336;DHT22;31365;48.858;8.530;2022-09-09T14:09:18;24.40;95.60
46336;DHT22;31365;48.858;8.530;2022-09-09T14:11:46;24.70;95.70
46336;DHT22;31365;48.858;8.530;2022-09-09T14:14:16;25.70;94.70
46336;DHT22;31365;48.858;8.530;2022-09-09T14:16:44;26.30;93.80
46336;DHT22;31365;48.858;8.530;2022-09-09T14:19:13;26.20;93.60
46336;DHT22;31365;48.858;8.530;2022-09-09T14:21:42;27.00;93.00
46336;DHT22;31365;48.858;8.530;2022-09-09T14:24:10;27.40;92.10
46336;DHT22;31365;48.858;8.530;2022-09-09T14:26:39;27.30;91.50
46336;DHT22;31365;48.858;8.530;2022-09-09T14:29:08;27.20;91.90
46336;DHT22;31365;48.858;8.530;2022-09-09T14:31:37;27.20;92.10
46336;DHT22;31365;48.858;8.530;2022-09-09T14:34:05;27.10;91.60
46336;DHT22;31365;48.858;8.530;2022-09-09T14:36:33;26.80;92.00
46336;DHT22;31365;48.858;8.530;2022-09-09T14:39:03;26.40;92.40
46336;DHT22;31365;48.858;8.530;2022-09-09T14:41:31;25.80;92.60
46336;DHT22;31365;48.858;8.530;2022-09-09T14:44:00;25.10;93.20
46336;DHT22;31365;48.858;8.530;2022-09-09T14:46:29;24.70;93.90
46336;DHT22;31365;48.858;8.530;2022-09-09T14:48:59;24.70;94.30
46336;DHT22;31365;48.858;8.530;2022-09-09T14:51:28;24.90;93.90
46336;DHT22;31365;48.858;8.530;2022-09-09T14:53:58;24.60;94.10
46336;DHT22;31365;48.858;8.530;2022-09-09T14:56:30;24.10;94.00
46336;DHT22;31365;48.858;8.530;2022-09-09T14:59:01;23.90;94.30
46336;DHT22;31365;48.858;8.530;2022-09-09T15:01:31;23.70;94.50
46336;DHT22;31365;48.858;8.530;2022-09-09T15:04:03;23.80;94.80
46336;DHT22;31365;48.858;8.530;2022-09-09T15:06:34;23.60;95.30
46336;DHT22;31365;48.858;8.530;2022-09-09T15:09:05;23.30;95.60
46336;DHT22;31365;48.858;8.530;2022-09-09T15:11:36;23.00;95.90
46336;DHT22;31365;48.858;8.530;2022-09-09T15:14:06;22.60;96.80
46336;DHT22;31365;48.858;8.530;2022-09-09T15:16:36;22.30;97.20
46336;DHT22;31365;48.858;8.530;2022-09-09T15:19:06;22.00;97.60
46336;DHT22;31365;48.858;8.530;2022-09-09T15:21:37;21.70;98.20
46336;DHT22;31365;48.858;8.530;2022-09-09T15:24:06;21.30;99.90
46336;DHT22;31365;48.858;8.530;2022-09-09T15:26:35;21.00;99.90
46336;DHT22;31365;48.858;8.530;2022-09-09T15:29:06;20.60;99.90
46336;DHT22;31365;48.858;8.530;2022-09-09T15:31:36;20.20;99.90
46336;DHT22;31365;48.858;8.530;2022-09-09T15:34:06;19.60;99.90
46336;DHT22;31365;48.858;8.530;2022-09-09T15:36:36;19.10;99.90
46336;DHT22;31365;48.858;8.530;2022-09-09T15:39:07;18.70;99.90
46336;DHT22;31365;48.858;8.530;2022-09-09T15:41:36;18.20;99.90
46336;DHT22;31365;48.858;8.530;2022-09-09T15:44:05;18.00;99.90
46336;DHT22;31365;48.858;8.530;2022-09-09T15:46:35;17.80;99.90
46336;DHT22;31365;48.858;8.530;2022-09-09T15:49:07;17.80;99.90
46336;DHT22;31365;48.858;8.530;2022-09-09T15:51:39;17.90;99.90
46336;DHT22;31365;48.858;8.530;2022-09-09T15:54:12;18.00;99.90
46336;DHT22;31365;48.858;8.530;2022-09-09T15:56:44;18.00;99.90
46336;DHT22;31365;48.858;8.530;2022-09-09T15:59:14;18.10;99.90
46336;DHT22;31365;48.858;8.530;2022-09-09T16:01:43;18.30;99.90
46336;DHT22;31365;48.858;8.530;2022-09-09T16:04:13;18.40;99.90
46336;DHT22;31365;48.858;8.530;2022-09-09T16:06:46;18.60;99.90
46336;DHT22;31365;48.858;8.530;2022-09-09T16:09:15;18.80;99.90
46336;DHT22;31365;48.858;8.530;2022-09-09T16:11:43;18.90;99.90
46336;DHT22;31365;48.858;8.530;2022-09-09T16:14:14;18.70;99.90
46336;DHT22;31365;48.858;8.530;2022-09-09T16:16:43;18.70;99.90
46336;DHT22;31365;48.858;8.530;2022-09-09T16:19:13;18.50;99.90
46336;DHT22;31365;48.858;8.530;2022-09-09T16:21:43;18.40;99.90
46336;DHT22;31365;48.858;8.530;2022-09-09T16:24:15;18.40;99.90
46336;DHT22;31365;48.858;8.530;2022-09-09T16:26:47;18.30;99.90
46336;DHT22;31365;48.858;8.530;2022-09-09T16:29:18;18.20;99.90
46336;DHT22;31365;48.858;8.530;2022-09-09T16:31:48;18.20;99.90
46336;DHT22;31365;48.858;8.530;2022-09-09T16:34:18;18.10;99.90
46336;DHT22;31365;48.858;8.530;2022-09-09T16:36:47;18.00;99.90
46336;DHT22;31365;48.858;8.530;2022-09-09T16:39:17;17.90;99.90
46336;DHT22;31365;48.858;8.530;2022-09-09T16:41:47;17.90;99.90
46336;DHT22;31365;48.858;8.530;2022-09-09T16:44:18;17.80;99.90
46336;DHT22;31365;48.858;8.530;2022-09-09T16:46:48;17.90;99.90
46336;DHT22;31365;48.858;8.530;2022-09-09T16:49:25;17.80;99.90